Time;durP1;ratioP1;P1;durP2;ratioP2;P2;SDS_P1;SDS_P2;PMS_P1;PMS_P2;Temp;Humidity;BMP_temperature;BMP_pressure;BME280_temperature;BME280_humidity;BME280_pressure;Samples;Min_cycle;Max_cycle;Signal;HPM_P1;HPM_P2
2022/01/21 00:00:20;;;;;;;7.70;2.43;;;;;;;-1.99;100.00;95564.69;5065699;28;20200;-73
2022/01/21 00:03:06;;;;;;;7.77;2.53;;;;;;;-1.96;100.00;95574.66;5084918;28;20247;-73
2022/01/21 00:05:52;;;;;;;6.47;2.70;;;;;;;-1.96;100.00;95582.69;5061011;28;20194;-73
2022/01/21 00:08:40;;;;;;;6.37;2.67;;;;;;;-1.92;100.00;95580.84;5077813;28;20730;-73
2022/01/21 00:11:30;;;;;;;5.90;2.63;;;;;;;-1.88;100.00;95584.31;5073183;28;20221;-73
2022/01/21 00:14:16;;;;;;;8.70;3.03;;;;;;;-1.78;100.00;95585.63;5069029;28;20202;-73
2022/01/21 00:17:02;;;;;;;6.30;2.73;;;;;;;-1.75;100.00;95582.22;5066858;28;20213;-73
2022/01/21 00:19:51;;;;;;;6.90;2.87;;;;;;;-1.74;100.00;95583.75;5038732;28;20366;-73
2022/01/21 00:31:51;;;;;;;8.00;2.77;;;;;;;-1.82;100.00;95582.13;5064212;28;20248;-73
2022/01/21 00:34:37;;;;;;;3.93;2.47;;;;;;;-1.75;100.00;95584.91;5037848;28;20205;-74
2022/01/21 00:37:23;;;;;;;8.43;3.13;;;;;;;-1.66;100.00;95586.16;5045819;28;20221;-74
2022/01/21 00:40:14;;;;;;;8.60;3.10;;;;;;;-1.69;100.00;95578.88;5077810;28;20193;-74
2022/01/21 00:45:53;;;;;;;6.30;2.50;;;;;;;-1.63;100.00;95577.41;5062779;28;20258;-73
2022/01/21 00:48:39;;;;;;;8.10;2.53;;;;;;;-1.62;100.00;95578.19;5068812;28;20577;-74
2022/01/21 00:51:25;;;;;;;8.73;3.00;;;;;;;-1.66;100.00;95582.72;5080236;28;20217;-74
2022/01/21 00:54:11;;;;;;;6.80;2.63;;;;;;;-1.53;100.00;95584.81;5049597;28;20190;-74
2022/01/21 00:56:58;;;;;;;10.13;2.80;;;;;;;-1.55;100.00;95589.78;5040145;28;20266;-74
2022/01/21 00:59:43;;;;;;;3.80;3.03;;;;;;;-1.59;100.00;95593.53;5077652;28;20186;-73
2022/01/21 01:02:29;;;;;;;7.73;2.97;;;;;;;-1.61;100.00;95585.06;5056567;28;20186;-73
2022/01/21 01:05:15;;;;;;;9.90;2.77;;;;;;;-1.52;100.00;95581.00;5065999;28;20208;-74
2022/01/21 01:08:03;;;;;;;7.03;2.60;;;;;;;-1.45;100.00;95583.00;5063641;28;20217;-74
2022/01/21 01:20:19;;;;;;;8.27;3.03;;;;;;;-1.50;100.00;95605.53;5067206;28;20208;-74
2022/01/21 01:23:07;;;;;;;4.03;2.40;;;;;;;-1.55;100.00;95597.03;5061502;28;20189;-74
2022/01/21 01:28:58;;;;;;;9.40;3.00;;;;;;;-1.62;100.00;95611.09;5066979;28;20205;-74
2022/01/21 01:31:44;;;;;;;7.20;2.97;;;;;;;-1.63;100.00;95592.72;5058926;28;20258;-74
2022/01/21 01:34:30;;;;;;;10.97;2.83;;;;;;;-1.62;100.00;95615.66;5074282;28;20186;-73
2022/01/21 01:37:35;;;;;;;6.17;2.73;;;;;;;-1.59;100.00;95609.59;5086376;28;20760;-73
2022/01/21 01:40:33;;;;;;;7.63;2.77;;;;;;;-1.56;100.00;95603.53;5064237;28;20221;-74
2022/01/21 01:49:30;;;;;;;8.43;3.23;;;;;;;-1.55;100.00;95589.00;5074123;28;20293;-74
2022/01/21 01:52:17;;;;;;;7.60;2.77;;;;;;;-1.50;100.00;95610.09;5053040;28;20198;-74
2022/01/21 01:55:04;;;;;;;6.60;2.50;;;;;;;-1.48;100.00;95599.81;5054239;28;20196;-74
2022/01/21 01:57:50;;;;;;;12.10;2.77;;;;;;;-1.55;100.00;95603.16;5075321;28;20243;-74
2022/01/21 02:00:36;;;;;;;7.97;2.50;;;;;;;-1.47;100.00;95610.16;5077505;28;20189;-74
2022/01/21 02:03:22;;;;;;;7.43;2.37;;;;;;;-1.45;100.00;95604.44;5041991;28;20189;-74
2022/01/21 02:06:08;;;;;;;7.70;2.13;;;;;;;-1.57;100.00;95613.47;5061893;28;20280;-74
2022/01/21 02:08:54;;;;;;;4.83;2.83;;;;;;;-1.55;100.00;95621.13;5055399;28;20206;-74
2022/01/21 02:11:40;;;;;;;7.63;2.97;;;;;;;-1.50;100.00;95623.50;5058674;28;20320;-74
2022/01/21 02:14:36;;;;;;;8.73;3.27;;;;;;;-1.51;100.00;95605.88;5061000;28;20286;-74
2022/01/21 02:23:18;;;;;;;7.27;2.30;;;;;;;-1.43;100.00;95612.88;5068968;28;20686;-74
2022/01/21 02:26:04;;;;;;;4.80;2.80;;;;;;;-1.55;100.00;95602.38;5055145;28;20193;-73
2022/01/21 02:28:52;;;;;;;14.93;3.23;;;;;;;-1.47;100.00;95604.00;5081156;28;20223;-74
2022/01/21 02:31:40;;;;;;;4.70;1.93;;;;;;;-1.46;100.00;95600.97;5037015;28;20637;-73
2022/01/21 02:34:27;;;;;;;8.73;2.30;;;;;;;-1.48;100.00;95608.59;5062449;28;20194;-73
2022/01/21 02:37:16;;;;;;;6.40;2.63;;;;;;;-1.48;100.00;95603.22;5084844;28;20294;-73
2022/01/21 02:40:02;;;;;;;4.33;2.43;;;;;;;-1.57;100.00;95605.44;5063799;28;20212;-73
2022/01/21 02:42:48;;;;;;;8.33;2.60;;;;;;;-1.59;100.00;95606.91;5073061;28;20236;-73
2022/01/21 02:45:36;;;;;;;6.53;2.77;;;;;;;-1.59;100.00;95599.66;5079200;28;20325;-74
2022/01/21 02:48:23;;;;;;;3.77;2.03;;;;;;;-1.66;100.00;95602.22;5045455;28;20645;-74
2022/01/21 02:51:13;;;;;;;14.17;2.77;;;;;;;-1.66;100.00;95601.44;5062379;28;20592;-73
2022/01/21 02:54:05;;;;;;;13.23;2.57;;;;;;;-1.58;100.00;95605.78;5070430;28;20194;-73
2022/01/21 02:56:51;;;;;;;7.03;2.50;;;;;;;-1.62;100.00;95599.59;5057348;28;20193;-74
2022/01/21 02:59:37;;;;;;;6.93;2.53;;;;;;;-1.59;100.00;95599.66;5063376;28;20227;-73
2022/01/21 03:02:23;;;;;;;7.43;3.40;;;;;;;-1.71;100.00;95591.84;5055451;28;20189;-74
2022/01/21 03:05:14;;;;;;;9.40;3.03;;;;;;;-1.62;100.00;95602.28;5041227;28;20205;-74
2022/01/21 03:08:00;;;;;;;8.07;3.03;;;;;;;-1.64;100.00;95599.19;5051904;28;20589;-74
2022/01/21 03:10:46;;;;;;;8.60;2.53;;;;;;;-1.66;100.00;95598.78;5038967;28;20245;-73
2022/01/21 03:13:32;;;;;;;10.57;2.30;;;;;;;-1.71;100.00;95607.13;5037824;28;20190;-74
2022/01/21 03:16:18;;;;;;;11.60;2.93;;;;;;;-1.70;100.00;95603.31;5074002;28;20543;-73
2022/01/21 03:19:04;;;;;;;11.37;3.00;;;;;;;-1.79;100.00;95597.44;5040506;28;20270;-74
2022/01/21 03:21:50;;;;;;;3.90;2.27;;;;;;;-1.75;100.00;95601.72;5079114;28;20224;-74
2022/01/21 03:24:36;;;;;;;4.30;2.70;;;;;;;-1.63;100.00;95619.50;5063799;28;20234;-73
2022/01/21 03:27:22;;;;;;;8.27;2.60;;;;;;;-1.76;100.00;95612.78;5075960;28;20209;-73
2022/01/21 03:30:09;;;;;;;8.50;2.67;;;;;;;-1.66;100.00;95623.66;5069294;28;20217;-73
2022/01/21 03:33:02;;;;;;;7.33;2.90;;;;;;;-1.73;100.00;95631.59;5052073;28;20190;-74
2022/01/21 03:35:48;;;;;;;9.00;3.03;;;;;;;-1.69;100.00;95637.00;5064207;28;20193;-73
2022/01/21 03:38:34;;;;;;;5.43;2.33;;;;;;;-1.71;100.00;95629.31;5082031;28;20575;-74
2022/01/21 03:41:20;;;;;;;5.50;2.37;;;;;;;-1.71;100.00;95637.34;5060000;28;20213;-74
2022/01/21 03:44:06;;;;;;;6.50;2.50;;;;;;;-1.68;100.00;95633.19;5076613;28;20607;-74
2022/01/21 03:46:54;;;;;;;5.00;2.50;;;;;;;-1.64;100.00;95642.81;5078754;28;20215;-74
2022/01/21 03:49:50;;;;;;;7.60;2.83;;;;;;;-1.65;100.00;95653.88;5044236;28;20273;-73
2022/01/21 03:52:36;;;;;;;7.00;2.37;;;;;;;-1.59;100.00;95650.53;5057980;28;20209;-74
2022/01/21 03:55:22;;;;;;;7.83;2.73;;;;;;;-1.71;100.00;95637.34;5070374;28;20273;-74
2022/01/21 03:58:10;;;;;;;3.80;1.80;;;;;;;-1.73;100.00;95654.94;5060841;28;20340;-73
2022/01/21 04:01:01;;;;;;;4.70;2.33;;;;;;;-1.80;100.00;95638.75;5061643;28;20277;-74
2022/01/21 04:03:49;;;;;;;6.00;2.30;;;;;;;-1.95;100.00;95642.34;5065426;28;20244;-74
2022/01/21 04:06:35;;;;;;;7.33;2.67;;;;;;;-1.73;100.00;95649.56;5037191;28;20202;-74
2022/01/21 04:09:21;;;;;;;5.40;2.10;;;;;;;-1.74;100.00;95650.69;5053523;28;20197;-73
2022/01/21 04:12:09;;;;;;;6.17;3.03;;;;;;;-1.74;100.00;95642.66;5058320;28;20272;-74
2022/01/21 04:14:59;;;;;;;6.97;2.93;;;;;;;-1.75;100.00;95641.88;5056861;28;20193;-74
2022/01/21 04:17:46;;;;;;;5.10;2.83;;;;;;;-1.82;100.00;95647.16;5046945;28;20221;-73
2022/01/21 04:20:32;;;;;;;6.83;2.70;;;;;;;-1.92;100.00;95638.94;5068187;28;20231;-73
2022/01/21 04:23:20;;;;;;;12.47;2.47;;;;;;;-2.05;100.00;95619.63;5069836;28;20188;-73
2022/01/21 04:26:06;;;;;;;6.03;2.57;;;;;;;-1.88;100.00;95653.13;5066589;28;20239;-73
2022/01/21 04:28:52;;;;;;;7.53;2.57;;;;;;;-1.93;100.00;95640.84;5050707;28;20225;-73
2022/01/21 04:31:38;;;;;;;7.93;2.73;;;;;;;-1.94;100.00;95643.88;5024291;28;20682;-73
2022/01/21 04:34:24;;;;;;;4.87;2.50;;;;;;;-2.01;100.00;95627.72;5052134;28;20225;-73
2022/01/21 04:37:13;;;;;;;6.97;2.60;;;;;;;-1.93;100.00;95648.88;5061932;28;20185;-73
2022/01/21 04:40:12;;;;;;;11.27;2.80;;;;;;;-2.00;100.00;95639.97;5069323;28;20192;-73
2022/01/21 04:49:11;;;;;;;7.57;2.83;;;;;;;-2.04;100.00;95628.44;5076376;28;20213;-74
2022/01/21 04:52:03;;;;;;;7.60;2.77;;;;;;;-2.05;100.00;95640.28;5075701;28;20240;-74
2022/01/21 04:55:12;;;;;;;8.10;2.73;;;;;;;-2.11;100.00;95637.13;5064924;28;20201;-74
2022/01/21 04:57:58;;;;;;;7.40;3.20;;;;;;;-2.15;100.00;95649.66;5053928;28;20248;-73
2022/01/21 05:00:44;;;;;;;9.30;2.87;;;;;;;-2.13;100.00;95651.97;5061906;28;20721;-74
2022/01/21 05:03:31;;;;;;;7.50;3.67;;;;;;;-2.10;100.00;95645.91;5055958;28;20231;-74
2022/01/21 05:06:17;;;;;;;5.83;3.30;;;;;;;-2.07;100.00;95654.00;5052887;28;20212;-74
2022/01/21 05:09:05;;;;;;;9.60;3.20;;;;;;;-2.10;100.00;95656.59;5049076;28;20225;-73
2022/01/21 05:11:52;;;;;;;12.13;3.70;;;;;;;-2.07;100.00;95666.63;5061294;28;20311;-74
2022/01/21 05:17:29;;;;;;;6.37;3.00;;;;;;;-2.09;100.00;95666.97;5068287;28;20214;-73
2022/01/21 05:20:16;;;;;;;7.63;3.00;;;;;;;-2.12;100.00;95675.69;5066442;28;20276;-73
2022/01/21 05:23:29;;;;;;;7.03;3.40;;;;;;;-2.05;100.00;95683.09;5076993;28;20201;-73
2022/01/21 05:26:15;;;;;;;6.23;3.00;;;;;;;-2.13;100.00;95671.50;5058701;28;20198;-73
2022/01/21 05:29:05;;;;;;;8.47;3.40;;;;;;;-1.98;100.00;95678.63;5029359;28;20217;-72
2022/01/21 05:32:11;;;;;;;7.97;3.33;;;;;;;-1.95;100.00;95679.81;5069772;28;20681;-74
2022/01/21 05:35:15;;;;;;;14.40;3.50;;;;;;;-1.88;100.00;95680.69;5051829;28;20198;-74
2022/01/21 05:38:01;;;;;;;6.27;3.37;;;;;;;-1.82;100.00;95692.66;5077232;28;20224;-73
2022/01/21 05:41:06;;;;;;;11.20;2.83;;;;;;;-1.85;100.00;95689.91;5065704;28;20189;-73
2022/01/21 05:46:22;;;;;;;14.90;3.03;;;;;;;-1.95;100.00;95691.28;5069913;28;20182;-73
2022/01/21 05:47:37;;;;;;;8.13;3.23;;;;;;;-1.93;100.00;95689.03;5054588;28;20221;-73
2022/01/21 05:50:42;;;;;;;6.90;3.27;;;;;;;-1.99;100.00;95692.34;5061756;28;20210;-73
2022/01/21 05:53:43;;;;;;;10.57;3.43;;;;;;;-2.00;100.00;95698.84;5068304;28;20211;-74
2022/01/21 05:56:49;;;;;;;9.80;3.03;;;;;;;-2.00;100.00;95702.28;5069091;28;20205;-73
2022/01/21 05:59:50;;;;;;;10.73;3.50;;;;;;;-1.94;100.00;95702.75;5043048;28;20686;-73
2022/01/21 06:02:37;;;;;;;6.63;2.90;;;;;;;-1.95;100.00;95731.41;5070292;28;20217;-73
2022/01/21 06:05:23;;;;;;;6.90;2.97;;;;;;;-1.93;100.00;95728.38;5045600;28;20281;-73
2022/01/21 06:08:10;;;;;;;7.53;2.60;;;;;;;-2.07;100.00;95720.13;5067786;28;20640;-73
2022/01/21 06:10:56;;;;;;;10.70;2.97;;;;;;;-2.01;100.00;95730.19;5070965;28;20255;-74
2022/01/21 06:13:45;;;;;;;7.00;3.90;;;;;;;-2.02;100.00;95731.28;5063836;28;20205;-74
2022/01/21 06:16:33;;;;;;;12.63;3.73;;;;;;;-1.95;100.00;95736.03;5049900;28;20205;-73
2022/01/21 06:19:19;;;;;;;7.90;3.00;;;;;;;-2.02;100.00;95752.72;5063962;28;20276;-74
2022/01/21 06:22:06;;;;;;;13.30;3.97;;;;;;;-2.03;100.00;95751.16;5069670;28;20272;-73
2022/01/21 06:24:53;;;;;;;13.97;3.67;;;;;;;-2.11;100.00;95740.69;5070127;28;20196;-73
2022/01/21 06:27:39;;;;;;;9.57;3.10;;;;;;;-2.14;100.00;95760.13;5075878;28;20304;-74
2022/01/21 06:30:25;;;;;;;7.77;3.03;;;;;;;-2.18;100.00;95759.28;5075130;28;20229;-74
2022/01/21 06:33:11;;;;;;;8.37;2.83;;;;;;;-2.21;100.00;95751.97;5061364;28;20198;-74
2022/01/21 06:35:57;;;;;;;11.60;3.13;;;;;;;-2.30;100.00;95740.72;5073416;28;20197;-73
2022/01/21 06:38:43;;;;;;;8.40;2.80;;;;;;;-2.27;100.00;95756.84;5071130;28;20238;-73
2022/01/21 06:41:29;;;;;;;11.90;3.20;;;;;;;-2.28;100.00;95768.69;5088741;28;20186;-74
2022/01/21 06:44:15;;;;;;;9.70;3.47;;;;;;;-2.30;100.00;95770.16;5054620;28;20191;-73
2022/01/21 06:47:01;;;;;;;9.00;3.43;;;;;;;-2.42;100.00;95772.97;5056403;28;20204;-74
2022/01/21 06:49:47;;;;;;;6.43;3.23;;;;;;;-2.36;100.00;95771.56;5063421;28;20639;-73
2022/01/21 06:52:33;;;;;;;12.63;3.33;;;;;;;-2.39;100.00;95777.63;5085564;28;20243;-74
2022/01/21 06:55:19;;;;;;;9.43;3.67;;;;;;;-2.45;100.00;95779.81;5092362;28;20531;-74
2022/01/21 06:58:05;;;;;;;8.43;2.93;;;;;;;-2.47;100.00;95790.06;5066141;28;20261;-74
2022/01/21 07:00:51;;;;;;;9.47;3.07;;;;;;;-2.53;100.00;95784.22;5065000;28;20201;-74
2022/01/21 07:03:37;;;;;;;7.67;2.90;;;;;;;-2.50;100.00;95790.78;5070979;28;20228;-73
2022/01/21 07:06:23;;;;;;;6.80;3.03;;;;;;;-2.60;100.00;95772.63;5058404;28;20670;-73
2022/01/21 07:09:09;;;;;;;6.77;2.70;;;;;;;-2.43;100.00;95785.59;5056029;28;20572;-73
2022/01/21 07:11:55;;;;;;;6.10;2.63;;;;;;;-2.26;100.00;95800.44;5082366;28;20210;-74
2022/01/21 07:14:42;;;;;;;8.67;2.97;;;;;;;-2.24;100.00;95804.28;5055821;28;20197;-74
2022/01/21 07:17:28;;;;;;;9.30;3.07;;;;;;;-2.31;100.00;95804.16;5080470;28;20221;-74
2022/01/21 07:20:15;;;;;;;6.40;3.03;;;;;;;-2.23;100.00;95797.03;5061979;28;20220;-73
2022/01/21 07:23:01;;;;;;;14.00;3.67;;;;;;;-2.15;100.00;95809.41;5062364;28;20277;-73
2022/01/21 07:25:47;;;;;;;7.67;3.93;;;;;;;-2.10;100.00;95807.22;5073385;28;20374;-74
2022/01/21 07:28:33;;;;;;;13.77;3.30;;;;;;;-2.12;100.00;95814.84;5055685;28;20224;-74
2022/01/21 07:31:19;;;;;;;5.27;2.60;;;;;;;-2.09;100.00;95808.00;5085421;28;20782;-74
2022/01/21 07:34:06;;;;;;;10.73;3.70;;;;;;;-2.01;100.00;95818.50;5092464;28;20207;-73
2022/01/21 07:36:53;;;;;;;17.37;3.10;;;;;;;-1.88;100.00;95835.16;5066041;28;20241;-74
2022/01/21 07:39:39;;;;;;;7.80;3.03;;;;;;;-1.89;100.00;95822.91;5074068;28;20195;-74
2022/01/21 07:42:26;;;;;;;10.10;3.37;;;;;;;-1.75;100.00;95828.53;5087838;28;20829;-74
2022/01/21 07:45:12;;;;;;;8.83;2.80;;;;;;;-1.85;100.00;95845.19;5077812;28;20217;-73
2022/01/21 07:47:58;;;;;;;13.23;3.90;;;;;;;-1.74;100.00;95822.81;5075614;28;20210;-74
2022/01/21 07:50:44;;;;;;;10.97;2.63;;;;;;;-1.86;100.00;95814.16;5078147;28;20641;-74
2022/01/21 07:53:30;;;;;;;10.67;2.80;;;;;;;-1.81;100.00;95827.25;5074261;28;20198;-74
2022/01/21 07:56:16;;;;;;;8.70;2.60;;;;;;;-1.73;100.00;95829.72;5056485;28;20269;-74
2022/01/21 07:59:06;;;;;;;7.90;3.47;;;;;;;-1.37;100.00;95826.50;5061538;28;20251;-73
2022/01/21 08:01:52;;;;;;;10.63;3.30;;;;;;;-1.52;100.00;95808.66;5052109;28;20196;-74
2022/01/21 08:04:38;;;;;;;11.70;3.43;;;;;;;-1.50;100.00;95817.13;5058982;28;20268;-73
2022/01/21 08:07:23;;;;;;;9.57;3.13;;;;;;;-1.58;100.00;95818.09;5064984;28;20698;-73
2022/01/21 08:10:09;;;;;;;8.40;2.90;;;;;;;-1.58;100.00;95815.44;5067291;28;20237;-74
2022/01/21 08:12:55;;;;;;;7.53;3.10;;;;;;;-1.37;100.00;95813.13;5052197;28;20969;-73
2022/01/21 08:15:41;;;;;;;8.17;3.03;;;;;;;-1.06;100.00;95830.84;5074907;28;20209;-73
2022/01/21 08:18:27;;;;;;;6.03;2.77;;;;;;;-1.05;100.00;95826.25;5072420;28;20607;-74
2022/01/21 08:21:18;;;;;;;10.37;3.53;;;;;;;-0.44;100.00;95835.53;5068592;28;20185;-74
2022/01/21 08:24:06;;;;;;;23.70;3.63;;;;;;;-0.07;100.00;95830.25;5073774;28;20198;-74
2022/01/21 08:26:52;;;;;;;9.57;3.03;;;;;;;-0.45;98.43;95820.59;5059937;28;20679;-74
2022/01/21 08:29:38;;;;;;;10.80;2.77;;;;;;;0.12;95.79;95818.56;5066603;28;20320;-73
2022/01/21 08:32:24;;;;;;;11.97;2.90;;;;;;;0.70;92.45;95809.53;5072309;28;20276;-74
2022/01/21 08:35:10;;;;;;;8.13;3.17;;;;;;;0.38;94.06;95805.78;5071828;28;20544;-74
2022/01/21 08:37:56;;;;;;;13.40;2.93;;;;;;;0.03;95.18;95821.56;5075237;28;20720;-74
2022/01/21 08:40:42;;;;;;;7.40;2.73;;;;;;;-0.09;96.89;95817.22;5060105;28;20200;-74
2022/01/21 08:43:28;;;;;;;6.43;2.50;;;;;;;-0.36;98.42;95823.00;5050718;28;20201;-74
2022/01/21 08:46:14;;;;;;;7.07;2.50;;;;;;;-1.02;99.46;95826.31;5054236;28;21040;-74
2022/01/21 08:49:06;;;;;;;9.30;3.07;;;;;;;-1.30;100.00;95813.22;5075712;28;20217;-73
2022/01/21 08:51:55;;;;;;;9.00;2.40;;;;;;;-1.34;100.00;95811.63;5079348;28;20249;-74
2022/01/21 08:54:41;;;;;;;11.60;3.17;;;;;;;-1.41;100.00;95817.63;5052466;28;20197;-73
2022/01/21 08:57:27;;;;;;;10.87;3.43;;;;;;;-1.39;100.00;95801.97;5064418;28;20224;-74
2022/01/21 09:00:15;;;;;;;6.67;2.77;;;;;;;-1.00;100.00;95820.59;5082392;28;20229;-74
2022/01/21 09:03:02;;;;;;;9.90;3.47;;;;;;;-0.94;98.81;95811.88;5051888;28;20563;-74
2022/01/21 09:05:50;;;;;;;5.47;2.50;;;;;;;-0.94;97.69;95829.84;5076457;28;20229;-74
2022/01/21 09:08:38;;;;;;;6.27;2.50;;;;;;;-0.96;98.94;95819.50;5066249;28;20276;-74
2022/01/21 09:11:24;;;;;;;7.70;2.70;;;;;;;-1.11;100.00;95815.06;5038330;28;20206;-74
2022/01/21 09:14:10;;;;;;;9.50;3.17;;;;;;;-1.39;100.00;95817.28;5078144;28;20717;-73
2022/01/21 09:16:57;;;;;;;10.07;2.20;;;;;;;-1.52;100.00;95813.25;5051002;28;20244;-74
2022/01/21 09:19:43;;;;;;;9.20;2.73;;;;;;;-1.63;100.00;95823.75;5062677;28;20197;-74
2022/01/21 09:22:29;;;;;;;9.93;2.33;;;;;;;-1.88;100.00;95827.91;5079066;28;20198;-73
2022/01/21 09:25:15;;;;;;;6.47;2.53;;;;;;;-1.60;100.00;95833.00;5071941;28;20189;-73
2022/01/21 09:28:01;;;;;;;8.33;1.73;;;;;;;-1.64;100.00;95824.13;5074857;28;20222;-73
2022/01/21 09:30:47;;;;;;;5.03;1.83;;;;;;;-1.81;98.73;95843.31;5056091;28;20222;-73
2022/01/21 09:33:33;;;;;;;6.37;2.00;;;;;;;-1.98;98.15;95841.88;5037873;28;20201;-73
2022/01/21 09:36:19;;;;;;;7.53;2.00;;;;;;;-1.57;97.61;95835.75;5067500;28;20276;-73
2022/01/21 09:39:06;;;;;;;3.90;1.80;;;;;;;-1.16;95.27;95842.16;5083284;28;20274;-73
2022/01/21 09:41:55;;;;;;;7.83;2.17;;;;;;;-1.14;92.81;95845.25;5065801;28;20190;-73
2022/01/21 09:44:44;;;;;;;4.90;2.20;;;;;;;-1.22;93.12;95843.56;5069154;28;20208;-74
2022/01/21 09:47:32;;;;;;;9.87;2.63;;;;;;;-1.07;93.17;95831.19;5078823;28;20213;-74
2022/01/21 09:50:20;;;;;;;8.63;2.63;;;;;;;-1.01;92.98;95833.19;5079137;28;20589;-74
2022/01/21 09:53:06;;;;;;;7.97;2.50;;;;;;;-0.76;91.61;95841.59;5074675;28;20193;-73
2022/01/21 09:55:54;;;;;;;5.90;2.47;;;;;;;-0.59;90.66;95838.38;5036170;28;20276;-74
2022/01/21 09:58:45;;;;;;;7.20;2.77;;;;;;;-0.13;89.15;95851.28;5071354;28;20217;-73
2022/01/21 10:01:33;;;;;;;5.13;2.50;;;;;;;0.49;85.93;95851.56;5082603;28;20181;-73
2022/01/21 10:04:20;;;;;;;9.90;3.13;;;;;;;1.88;79.50;95848.38;5073766;28;20634;-73
2022/01/21 10:07:15;;;;;;;4.27;2.23;;;;;;;0.76;80.12;95845.69;5069035;28;20743;-73
2022/01/21 10:10:07;;;;;;;7.53;2.50;;;;;;;0.62;82.95;95860.91;5074071;28;20368;-73
2022/01/21 10:13:01;;;;;;;9.60;2.80;;;;;;;0.45;83.95;95864.97;5070180;28;20300;-73
2022/01/21 10:15:48;;;;;;;5.87;2.17;;;;;;;0.23;82.65;95863.22;5073832;28;20229;-73
2022/01/21 10:18:35;;;;;;;12.33;2.63;;;;;;;0.06;84.57;95855.72;5068832;28;20256;-73
2022/01/21 10:21:29;;;;;;;8.10;2.33;;;;;;;-0.17;84.91;95857.75;5084704;28;20259;-74
2022/01/21 10:24:16;;;;;;;13.57;2.60;;;;;;;-0.23;85.94;95856.50;5055632;28;20190;-73
2022/01/21 10:27:03;;;;;;;8.10;2.40;;;;;;;-0.22;82.86;95871.50;5064468;28;20190;-73
2022/01/21 10:29:49;;;;;;;8.53;2.60;;;;;;;-0.49;84.49;95853.84;5077598;28;20193;-73
2022/01/21 10:32:36;;;;;;;10.67;2.70;;;;;;;-0.33;84.80;95871.34;5088647;28;20673;-73
2022/01/21 10:35:36;;;;;;;7.30;2.60;;;;;;;-0.92;84.86;95865.13;5066333;28;20197;-75
2022/01/21 10:38:29;;;;;;;6.70;2.23;;;;;;;-0.84;86.69;95870.22;5068213;28;20217;-73
2022/01/21 10:41:17;;;;;;;6.47;1.70;;;;;;;-0.42;84.52;95868.16;5073484;28;20217;-73
2022/01/21 10:44:06;;;;;;;5.03;2.37;;;;;;;-0.77;85.58;95882.97;5061972;28;20670;-73
2022/01/21 10:47:09;;;;;;;6.53;2.03;;;;;;;-0.67;87.40;95880.44;5077448;28;20204;-74
2022/01/21 10:50:06;;;;;;;10.77;2.67;;;;;;;-0.66;88.76;95884.66;5044239;28;20195;-73
2022/01/21 10:52:53;;;;;;;13.90;2.60;;;;;;;-0.61;88.85;95872.88;5078079;28;20224;-74
2022/01/21 10:55:39;;;;;;;9.10;2.57;;;;;;;-0.19;88.09;95878.81;5090535;28;20189;-73
2022/01/21 10:58:25;;;;;;;13.77;3.00;;;;;;;-0.07;85.08;95868.59;5076517;28;20222;-73
2022/01/21 11:01:17;;;;;;;4.70;2.10;;;;;;;-0.67;86.73;95871.63;5070382;28;20674;-73
2022/01/21 11:04:12;;;;;;;7.03;2.77;;;;;;;-0.72;88.02;95875.41;5028010;28;20197;-73
2022/01/21 11:06:59;;;;;;;6.23;2.27;;;;;;;-0.67;87.58;95875.09;5074234;28;20318;-74
2022/01/21 11:09:45;;;;;;;7.73;2.27;;;;;;;-0.84;86.38;95875.59;5049753;28;20768;-73
2022/01/21 11:12:32;;;;;;;8.80;2.03;;;;;;;-1.09;86.28;95884.38;5051047;28;20296;-74
2022/01/21 11:15:18;;;;;;;8.53;2.40;;;;;;;-1.10;85.46;95864.84;5072938;28;20720;-73
2022/01/21 11:18:06;;;;;;;9.77;2.47;;;;;;;-0.66;85.94;95873.94;5078273;28;20212;-74
2022/01/21 11:21:10;;;;;;;6.90;2.07;;;;;;;-0.25;83.33;95872.97;5068449;28;20197;-74
2022/01/21 11:24:04;;;;;;;3.17;1.73;;;;;;;0.00;82.15;95871.38;5054095;28;20687;-73
2022/01/21 11:27:08;;;;;;;6.33;2.50;;;;;;;0.03;81.60;95867.94;5050092;28;20272;-74
2022/01/21 11:29:55;;;;;;;11.13;2.50;;;;;;;-0.12;80.85;95862.81;5087523;28;20200;-74
2022/01/21 11:32:41;;;;;;;6.17;2.70;;;;;;;-0.32;80.47;95859.47;5070076;28;20247;-74
2022/01/21 11:35:28;;;;;;;11.23;2.77;;;;;;;-0.36;82.30;95853.31;5057472;28;20198;-73
2022/01/21 11:38:16;;;;;;;6.50;2.33;;;;;;;-0.56;82.35;95840.38;5089075;28;20299;-74
2022/01/21 11:41:04;;;;;;;10.37;2.60;;;;;;;-0.30;83.56;95848.38;5070265;28;20197;-74
2022/01/21 11:43:53;;;;;;;13.43;3.13;;;;;;;-0.62;84.27;95856.00;5070794;28;20208;-74
2022/01/21 11:46:47;;;;;;;9.10;3.10;;;;;;;-1.02;88.96;95846.97;5057425;28;20271;-74
2022/01/21 11:49:33;;;;;;;10.00;3.50;;;;;;;-1.19;90.01;95852.81;5044421;28;20197;-73
2022/01/21 11:52:19;;;;;;;10.27;2.70;;;;;;;-1.00;90.29;95850.06;5056062;28;20250;-73
2022/01/21 11:55:05;;;;;;;13.20;3.43;;;;;;;-0.38;87.17;95858.25;5092910;28;20650;-74
2022/01/21 11:58:10;;;;;;;6.87;2.73;;;;;;;-0.03;83.19;95852.53;5060173;28;20252;-73
2022/01/21 12:00:56;;;;;;;8.00;2.73;;;;;;;0.05;82.87;95832.72;5058585;28;20220;-74
2022/01/21 12:03:53;;;;;;;10.43;2.97;;;;;;;-0.10;82.30;95842.50;5083469;28;20666;-74
2022/01/21 12:06:39;;;;;;;8.13;2.20;;;;;;;-0.28;80.67;95852.25;5065316;28;20588;-73
2022/01/21 12:09:53;;;;;;;8.30;2.47;;;;;;;0.79;76.45;95836.88;5080530;28;20204;-74
2022/01/21 12:13:05;;;;;;;6.03;2.57;;;;;;;0.80;74.95;95830.34;5073476;28;20256;-74
2022/01/21 12:19:07;;;;;;;8.10;1.97;;;;;;;0.63;73.26;95822.16;5053239;28;20221;-74
2022/01/21 12:21:54;;;;;;;5.50;2.67;;;;;;;0.17;75.13;95818.25;5058931;28;20200;-74
2022/01/21 12:25:13;;;;;;;6.43;2.17;;;;;;;-0.26;76.08;95814.31;5071498;28;20335;-73
2022/01/21 12:28:20;;;;;;;7.70;3.03;;;;;;;-0.13;78.22;95811.00;5053663;28;20240;-73
2022/01/21 12:31:08;;;;;;;13.67;3.00;;;;;;;-0.43;79.59;95825.59;5069411;28;20228;-73
2022/01/21 12:34:20;;;;;;;10.13;2.53;;;;;;;-0.49;81.04;95816.28;5045453;28;20568;-74
2022/01/21 12:37:07;;;;;;;7.97;2.47;;;;;;;-0.41;81.10;95826.00;5061341;28;20335;-74
2022/01/21 12:39:53;;;;;;;4.60;2.20;;;;;;;-0.13;79.28;95821.75;5068207;28;20753;-74
2022/01/21 12:42:39;;;;;;;6.23;2.13;;;;;;;-0.13;78.69;95820.97;5056925;28;20205;-74
2022/01/21 12:45:25;;;;;;;5.63;2.10;;;;;;;-0.08;78.99;95809.91;5055109;28;20217;-74
2022/01/21 12:48:32;;;;;;;6.43;2.13;;;;;;;0.46;77.12;95820.06;5070446;28;20284;-74
2022/01/21 12:51:54;;;;;;;9.87;2.90;;;;;;;0.33;75.81;95830.31;5077234;28;20221;-74
2022/01/21 12:57:49;;;;;;;4.93;2.10;;;;;;;0.31;74.39;95823.75;5070070;28;20301;-74
2022/01/21 13:00:38;;;;;;;8.33;2.07;;;;;;;0.11;75.70;95817.78;5088646;28;20224;-74
2022/01/21 13:03:35;;;;;;;6.83;1.83;;;;;;;-0.08;76.64;95820.66;5057979;28;20186;-74
2022/01/21 13:06:37;;;;;;;7.43;2.10;;;;;;;-0.49;77.10;95810.94;5071036;28;20277;-74
2022/01/21 13:09:54;;;;;;;9.07;2.30;;;;;;;-0.88;79.50;95799.69;5066177;28;20209;-74
2022/01/21 13:13:16;;;;;;;5.67;1.87;;;;;;;-0.63;79.31;95798.09;5084739;28;20247;-73
2022/01/21 13:15:57;;;;;;;9.83;2.30;;;;;;;-0.29;78.33;95790.88;5063218;28;20619;-74
2022/01/21 13:18:43;;;;;;;6.50;2.10;;;;;;;-0.25;76.74;95805.88;5039211;28;20221;-73
2022/01/21 13:21:30;;;;;;;9.33;2.00;;;;;;;-0.14;76.40;95795.28;5080634;28;20273;-74
2022/01/21 13:24:27;;;;;;;10.10;2.20;;;;;;;-0.16;74.64;95795.66;5091276;28;20189;-73
2022/01/21 13:27:13;;;;;;;3.67;1.70;;;;;;;0.17;72.29;95802.88;5080246;28;20230;-74
2022/01/21 13:30:01;;;;;;;6.87;1.83;;;;;;;0.29;71.86;95793.81;5067578;28;20249;-74
2022/01/21 13:32:56;;;;;;;6.17;2.03;;;;;;;0.11;73.46;95795.53;5061453;28;20568;-74
2022/01/21 13:35:44;;;;;;;7.63;1.80;;;;;;;0.20;73.34;95796.78;5061288;28;20194;-74
2022/01/21 13:38:30;;;;;;;9.33;2.50;;;;;;;0.26;72.19;95800.69;5059142;28;20210;-73
2022/01/21 13:41:17;;;;;;;4.97;2.47;;;;;;;0.48;73.18;95815.88;5077986;28;20215;-73
2022/01/21 13:44:06;;;;;;;5.47;1.70;;;;;;;0.44;70.32;95806.22;5071162;28;20181;-73
2022/01/21 13:46:52;;;;;;;7.23;2.03;;;;;;;0.65;68.71;95801.81;5072124;28;20667;-75
2022/01/21 13:49:38;;;;;;;7.07;1.90;;;;;;;0.18;69.29;95803.66;5058391;28;20198;-73
2022/01/21 13:52:44;;;;;;;6.93;2.07;;;;;;;0.17;71.50;95810.19;5077271;28;20702;-73
2022/01/21 13:55:53;;;;;;;6.87;1.50;;;;;;;-0.30;71.40;95816.94;5055733;28;20197;-74
2022/01/21 13:58:40;;;;;;;10.37;1.80;;;;;;;-0.44;71.81;95818.69;5069695;28;20647;-73
2022/01/21 14:01:27;;;;;;;8.00;1.73;;;;;;;-0.47;72.62;95816.72;5079606;28;20190;-74